ポイント・サリンス国際空港の過去48時間の天気

ポイント・サリンス国際空港 (Point Salines Airport)

現在時刻: 7/4 23:31 AST (7/5 03:31 UTC) 以下の時間は現地時間です。

過去48時間のMETAR気象情報
時間 風向 風速(m/s) 視程 気温(℃) 湿度(%) 気圧(hPa) 天気現象
4 23:00 4 10km以上 26 84 1015
4 22:00 不定 1 10km以上 27 79 1015
4 21:00 3 10km以上 27 79 1015
4 20:00 3 10km以上 27 79 1014
4 19:00 6 10km以上 27 74 1014
4 18:00 9 10km以上 28 74 1013
4 17:00 8 10km以上 30 62 1013
4 16:00 9 10km以上 30 66 1013
4 15:00 9 10km以上 31 59 1013 塵嵐 煙霧
4 14:00 8 10km以上 30 66 1014
4 13:00 9 10km以上 30 66 1014
4 12:30 9 10km以上 30 66 1015
4 11:00 8 10km以上 30 66 1015
4 10:00 8 10km以上 29 70 1015
4 09:00 8 10km以上 29 70 1015
4 08:00 7 10km以上 28 74 1015
4 07:00 東北東 6 10km以上 26 84 1014
4 06:00 東北東 6 10km以上 26 79 1014
4 05:00 東北東 6 10km以上 27 79 1015
4 04:00 6 10km以上 27 79 1015
4 02:00 4 10km以上 27 84 1015
4 01:00 東北東 8 10km以上 27 84 1015 しゅう雨
4 00:00 6 10km以上 27 84 1016
3 23:00 東北東 5 10km以上 27 79 1016
3 22:00 8 10km以上 27 79 1016
3 21:00 8 10km以上 27 79 1015
3 20:00 9 10km以上 27 79 1015
3 19:00 東北東 8 10km以上 27 79 1014
3 18:00 9 10km以上 28 74 1013
3 17:00 9 10km以上 29 70 1014
3 16:00 10 10km以上 30 70 1014
3 15:00 13 10km以上 30 70 1014
3 14:00 11 10km以上 29 74 1014
3 12:00 東南東 10 10km以上 30 70 1015
3 11:00 10 10km以上 29 79 1015
3 10:00 10 10km以上 29 79 1015
3 08:00 11 10km以上 29 74 1015
3 07:00 東北東 8 10km以上 28 79 1015
3 06:00 8 10km以上 27 84 1014
3 05:00 13 10km以上 27 84 1014
3 04:00 9 10km以上 27 84 1014
3 03:00 11 10km以上 27 84 1014
3 01:00 9 10km以上 27 84 1015
3 00:00 10 10km以上 27 84 1015
TGPY 050300Z 09007KT 9999 FEW020 26/23 Q1015 NOSIG
TGPY 050200Z VRB02KT 9999 FEW020 27/23 Q1015 NOSIG
TGPY 050100Z 09006KT 9999 FEW022 27/23 Q1015 NOSIG
TGPY 050000Z 09005KT 9999 FEW022 27/23 Q1014 NOSIG
TGPY 042300Z 08012KT 9999 FEW014CB 27/22 Q1014 NOSIG RMK CB-SSW
TGPY 042200Z 08017KT 9999 FEW014CB 28/23 Q1013 NOSIG RMK CB-S
TGPY 042100Z 08015KT 9999 FEW022 30/22 Q1013 NOSIG
TGPY 042000Z 09017KT 9999 FEW022 30/23 Q1013 NOSIG
TGPY 041900Z 08018KT 9999 FEW019 FEW///CB 31/22 Q1013 HZ CB DST-S NOSIG
TGPY 041800Z 09015KT 9999 FEW014CB 30/23 Q1014 NOSIG RMK CB-S
TGPY 041700Z 09018KT 9999 FEW014CB 30/23 Q1014 NOSIG RMK CB-S
TGPY 041630Z 08017KT 9999 FEW023 30/23 Q1015 NOSIG
TGPY 041500Z 09016KT 9999 FEW019 30/23 Q1015 NOSIG
TGPY 041400Z 08015KT 9999 FEW019 29/23 Q1015 NOSIG
TGPY 041300Z 08015KT 9999 FEW019 29/23 Q1015 NOSIG
TGPY 041200Z 08013KT 9999 FEW018 28/23 Q1015 NOSIG
TGPY 041100Z 07012KT 9999 FEW018 26/23 Q1014 NOSIG
TGPY 041000Z 07011KT 9999 FEW018 26/22 Q1014 NOSIG
TGPY 040900Z 07012KT 9999 FEW018 27/23 Q1015 NOSIG
TGPY 040800Z 09012KT 9999 SCT018 27/23 Q1015
TGPY 040600Z 09007KT 9999 SCT017 27/24 Q1015
TGPY 040500Z 07015KT 9999 BKN017 27/24 Q1015 ADJ SHRA-E
TGPY 040400Z 08012KT 9999 SCT017 27/24 Q1016
TGPY 040300Z 07010KT 9999 FEW017 27/23 Q1016
TGPY 040200Z 09015KT 9999 FEW018 27/23 Q1016 NOSIG
TGPY 040100Z 09016KT 9999 FEW017 27/23 Q1015
TGPY 040000Z 08018KT 9999 FEW017 27/23 Q1015
TGPY 032300Z 07016KT 9999 FEW017 27/23 Q1014
TGPY 032200Z 08018KT 9999 FEW018 28/23 Q1013
TGPY 032100Z 09018KT 9999 FEW018 29/23 Q1014
TGPY 032000Z 09020KT 9999 FEW018 30/24 Q1014 NOSIG
TGPY 031900Z 10025G35KT 9999 FEW019 30/24 Q1014 NOSIG
TGPY 031800Z 10022KT 9999 FEW018 29/24 Q1014 NOSIG
TGPY 031600Z 11020KT 9999 FEW018 30/24 Q1015 NOSIG
TGPY 031500Z 10020KT 9999 FEW018 29/25 Q1015 NOSIG
TGPY 031400Z 09020KT 9999 FEW018 29/25 Q1015 NOSIG
TGPY 031200Z 09022KT 9999 FEW018 29/24 Q1015 NOSIG
TGPY 031100Z 07016KT 9999 FEW018 28/24 Q1015 NOSIG
TGPY 031000Z 08015KT 9999 FEW018 27/24 Q1014 NOSIG
TGPY 030900Z 09025KT 9999 FEW018 27/24 Q1014 NOSIG
TGPY 030800Z 09017KT 9999 FEW018 27/24 Q1014 NOSIG
TGPY 030700Z 09022KT 9999 FEW018 27/24 Q1014 NOSIG
TGPY 030500Z 09017KT 9999 FEW018 27/24 Q1015 NOSIG
TGPY 030400Z 09020KT 9999 FEW018 27/24 Q1015 NOSIG